Terminal Aerodrome Forecast
Issued by NWS

Home | Current Version | Previous Version | Text Only | Print | Product List | Glossary On
Versions: 1 2 3 4 5 6 7 8 9 10 11 12 13 14 15 16 17
000
FTAK31 PAJN 300500
TAFAJN
TAF
PAJN 300523Z 3006/3106 09006KT P6SM -SHRA FEW004 OVC045
     FM300800 09004KT P6SM -SHRA FEW004 SCT020 BKN040
     FM301000 VRB03KT 3SM -SHRA BR FEW004 SCT015 OVC025
     FM301800 24004KT P6SM -SHRA SCT020 OVC035
     FM310000 VRB03KT P6SM -SHRA SCT020 OVC035=

USA.gov is the U.S. government's official web portal to all federal, state and local government web resources and services.